Time,TemperatureF,DewpointF,PressureIn,WindDirection,WindDirectionDegrees,WindSpeedMPH,WindSpeedGustMPH,Humidity,HourlyPrecipIn,Conditions,Clouds,dailyrainin,SoftwareType,DateUTC
2013-04-23 00:03:00,41.4,25.5,30.05,South,180,2.0,2.0,53,0.00,,,0.00,meteohub,2013-04-23 07:03:00,
2013-04-23 00:08:00,41.0,25.7,30.05,South,180,0.0,2.0,54,0.00,,,0.00,meteohub,2013-04-23 07:08:00,
2013-04-23 00:13:00,41.2,26.2,30.05,South,180,2.0,2.0,55,0.00,,,0.00,meteohub,2013-04-23 07:13:00,
2013-04-23 00:18:00,41.2,25.9,30.06,South,180,2.0,2.0,54,0.00,,,0.00,meteohub,2013-04-23 07:18:00,
2013-04-23 00:23:00,41.2,25.9,30.05,South,180,1.0,2.0,54,0.00,,,0.00,meteohub,2013-04-23 07:23:00,
2013-04-23 00:28:00,40.6,24.8,30.05,South,180,1.0,2.0,53,0.00,,,0.00,meteohub,2013-04-23 07:28:00,
2013-04-23 00:33:00,39.9,25.0,30.05,South,180,1.0,2.0,55,0.00,,,0.00,meteohub,2013-04-23 07:33:00,
2013-04-23 00:38:00,39.9,24.6,30.05,South,180,2.0,2.0,54,0.00,,,0.00,meteohub,2013-04-23 07:38:00,
2013-04-23 00:43:00,39.9,24.3,30.04,South,180,1.0,2.0,53,0.00,,,0.00,meteohub,2013-04-23 07:43:00,
2013-04-23 00:48:00,39.2,23.5,30.04,South,180,1.0,2.0,53,0.00,,,0.00,meteohub,2013-04-23 07:48:00,
2013-04-23 00:53:00,38.7,23.4,30.04,South,180,1.0,2.0,54,0.00,,,0.00,meteohub,2013-04-23 07:53:00,
2013-04-23 00:58:00,38.7,23.9,30.04,South,180,2.0,2.0,55,0.00,,,0.00,meteohub,2013-04-23 07:58:00,
2013-04-23 01:03:00,38.3,23.2,30.04,SSE,158,2.0,2.0,54,0.00,,,0.00,meteohub,2013-04-23 08:03:00,
2013-04-23 01:08:00,37.8,23.5,30.04,SSE,158,2.0,4.0,56,0.00,,,0.00,meteohub,2013-04-23 08:08:00,
2013-04-23 01:13:00,37.8,23.5,30.03,SSE,158,2.0,4.0,56,0.00,,,0.00,meteohub,2013-04-23 08:13:00,
2013-04-23 01:18:00,38.1,23.4,30.03,SSE,158,1.0,4.0,55,0.00,,,0.00,meteohub,2013-04-23 08:18:00,
2013-04-23 01:23:00,37.9,23.2,30.04,SSE,158,1.0,3.0,55,0.00,,,0.00,meteohub,2013-04-23 08:23:00,
2013-04-23 01:28:00,38.5,23.7,30.04,SSE,158,2.0,3.0,55,0.00,,,0.00,meteohub,2013-04-23 08:28:00,
2013-04-23 01:33:00,39.2,23.9,30.03,South,180,2.0,2.0,54,0.00,,,0.00,meteohub,2013-04-23 08:33:00,
2013-04-23 01:38:00,39.0,23.4,30.03,South,180,2.0,3.0,53,0.00,,,0.00,meteohub,2013-04-23 08:38:00,
2013-04-23 01:43:00,39.0,23.4,30.03,South,180,2.0,3.0,53,0.00,,,0.00,meteohub,2013-04-23 08:43:00,
2013-04-23 01:48:00,39.2,23.0,30.03,South,180,1.0,3.0,52,0.00,,,0.00,meteohub,2013-04-23 08:48:00,
2013-04-23 01:53:00,39.2,23.0,30.03,South,180,2.0,3.0,52,0.00,,,0.00,meteohub,2013-04-23 08:53:00,
2013-04-23 01:58:00,39.0,22.5,30.03,South,180,1.0,2.0,51,0.00,,,0.00,meteohub,2013-04-23 08:58:00,
2013-04-23 02:03:00,38.8,22.3,30.03,South,180,2.0,2.0,51,0.00,,,0.00,meteohub,2013-04-23 09:03:00,
2013-04-23 02:08:00,38.5,21.9,30.03,South,180,1.0,2.0,51,0.00,,,0.00,meteohub,2013-04-23 09:08:00,
2013-04-23 02:14:00,38.5,21.4,30.03,South,180,2.0,2.0,50,0.00,,,0.00,meteohub,2013-04-23 09:14:00,
2013-04-23 02:19:00,37.9,20.5,30.03,South,180,1.0,2.0,49,0.00,,,0.00,meteohub,2013-04-23 09:19:00,
2013-04-23 02:24:00,37.9,20.5,30.02,South,180,4.0,4.0,49,0.00,,,0.00,meteohub,2013-04-23 09:24:00,
2013-04-23 02:29:00,38.1,20.1,30.03,SSE,158,2.0,3.0,48,0.00,,,0.00,meteohub,2013-04-23 09:29:00,
2013-04-23 02:34:00,38.1,19.6,30.02,SSE,158,2.0,4.0,47,0.00,,,0.00,meteohub,2013-04-23 09:34:00,
2013-04-23 02:39:00,38.8,20.3,30.02,SSE,158,2.0,4.0,47,0.00,,,0.00,meteohub,2013-04-23 09:39:00,
2013-04-23 02:44:00,39.0,19.9,30.03,South,180,1.0,2.0,46,0.00,,,0.00,meteohub,2013-04-23 09:44:00,
2013-04-23 02:49:00,39.2,20.1,30.02,South,180,0.0,2.0,46,0.00,,,0.00,meteohub,2013-04-23 09:49:00,
2013-04-23 02:54:00,38.8,19.8,30.03,South,180,2.0,2.0,46,0.00,,,0.00,meteohub,2013-04-23 09:54:00,
2013-04-23 02:59:00,38.7,19.2,30.02,South,180,3.0,3.0,45,0.00,,,0.00,meteohub,2013-04-23 09:59:00,
2013-04-23 03:04:00,38.5,19.6,30.03,East,90,2.0,4.0,46,0.00,,,0.00,meteohub,2013-04-23 10:04:00,
2013-04-23 03:09:00,37.9,19.6,30.02,SW,225,3.0,4.0,47,0.00,,,0.00,meteohub,2013-04-23 10:09:00,
2013-04-23 03:14:00,38.3,19.8,30.03,South,180,2.0,4.0,47,0.00,,,0.00,meteohub,2013-04-23 10:14:00,
2013-04-23 03:19:00,37.9,19.6,30.03,SSE,158,2.0,4.0,47,0.00,,,0.00,meteohub,2013-04-23 10:19:00,
2013-04-23 03:24:00,37.8,19.4,30.03,SSE,158,1.0,4.0,47,0.00,,,0.00,meteohub,2013-04-23 10:24:00,
2013-04-23 03:29:00,37.9,19.6,30.03,SSE,158,2.0,2.0,47,0.00,,,0.00,meteohub,2013-04-23 10:29:00,
2013-04-23 03:34:00,38.1,20.1,30.03,South,180,2.0,2.0,48,0.00,,,0.00,meteohub,2013-04-23 10:34:00,
2013-04-23 03:39:00,37.6,19.2,30.03,South,180,2.0,2.0,47,0.00,,,0.00,meteohub,2013-04-23 10:39:00,
2013-04-23 03:44:00,37.2,19.8,30.03,South,180,2.0,3.0,49,0.00,,,0.00,meteohub,2013-04-23 10:44:00,
2013-04-23 03:49:00,37.4,19.9,30.02,South,180,1.0,3.0,49,0.00,,,0.00,meteohub,2013-04-23 10:49:00,
2013-04-23 03:54:00,37.4,19.9,30.03,South,180,2.0,3.0,49,0.00,,,0.00,meteohub,2013-04-23 10:54:00,
2013-04-23 03:59:00,37.0,19.6,30.03,South,180,2.0,2.0,49,0.00,,,0.00,meteohub,2013-04-23 10:59:00,
2013-04-23 04:04:00,37.0,19.2,30.04,SSE,158,1.0,2.0,48,0.00,,,0.00,meteohub,2013-04-23 11:04:00,
2013-04-23 04:09:00,37.4,19.9,30.04,South,180,4.0,4.0,49,0.00,,,0.00,meteohub,2013-04-23 11:09:00,
2013-04-23 04:14:00,37.2,19.4,30.04,East,90,2.0,4.0,48,0.00,,,0.00,meteohub,2013-04-23 11:14:00,
2013-04-23 04:19:00,37.2,19.8,30.04,East,90,2.0,4.0,49,0.00,,,0.00,meteohub,2013-04-23 11:19:00,
2013-04-23 04:24:00,37.8,20.3,30.04,East,90,1.0,4.0,49,0.00,,,0.00,meteohub,2013-04-23 11:24:00,
2013-04-23 04:29:00,37.8,19.8,30.04,East,90,2.0,3.0,48,0.00,,,0.00,meteohub,2013-04-23 11:29:00,
2013-04-23 04:34:00,37.4,19.9,30.04,East,90,3.0,3.0,49,0.00,,,0.00,meteohub,2013-04-23 11:34:00,
2013-04-23 04:39:00,36.9,19.4,30.04,East,90,2.0,4.0,49,0.00,,,0.00,meteohub,2013-04-23 11:39:00,
2013-04-23 04:44:00,36.9,19.9,30.05,East,90,2.0,4.0,50,0.00,,,0.00,meteohub,2013-04-23 11:44:00,
2013-04-23 04:49:00,36.7,20.3,30.05,East,90,2.0,4.0,51,0.00,,,0.00,meteohub,2013-04-23 11:49:00,
2013-04-23 04:54:00,37.0,20.7,30.05,South,180,2.0,4.0,51,0.00,,,0.00,meteohub,2013-04-23 11:54:00,
2013-04-23 04:59:00,37.2,20.8,30.05,SSE,158,4.0,4.0,51,0.00,,,0.00,meteohub,2013-04-23 11:59:00,
2013-04-23 05:04:00,37.4,20.8,30.05,SSE,158,1.0,4.0,51,0.00,,,0.00,meteohub,2013-04-23 12:04:00,
2013-04-23 05:12:00,37.4,20.8,30.05,East,90,4.0,4.0,51,0.00,,,0.00,meteohub,2013-04-23 12:12:00,
2013-04-23 05:19:00,37.4,21.4,30.06,SE,135,1.0,4.0,52,0.00,,,0.00,meteohub,2013-04-23 12:19:00,
2013-04-23 05:24:00,37.6,21.6,30.05,SE,135,1.0,4.0,52,0.00,,,0.00,meteohub,2013-04-23 12:24:00,
2013-04-23 05:29:00,37.8,22.1,30.05,South,180,3.0,4.0,53,0.00,,,0.00,meteohub,2013-04-23 12:29:00,
2013-04-23 05:34:00,37.8,22.1,30.05,South,180,1.0,4.0,53,0.00,,,0.00,meteohub,2013-04-23 12:34:00,
2013-04-23 05:39:00,37.8,22.6,30.05,South,180,2.0,4.0,54,0.00,,,0.00,meteohub,2013-04-23 12:39:00,
2013-04-23 05:44:00,37.8,22.6,30.06,South,180,1.0,4.0,54,0.00,,,0.00,meteohub,2013-04-23 12:44:00,
2013-04-23 05:49:00,37.9,23.2,30.06,South,180,2.0,4.0,55,0.00,,,0.00,meteohub,2013-04-23 12:49:00,
2013-04-23 05:54:00,38.1,23.0,30.06,East,90,1.0,4.0,54,0.00,,,0.00,meteohub,2013-04-23 12:54:00,
2013-04-23 05:59:00,37.9,23.2,30.06,East,90,3.0,3.0,55,0.00,,,0.00,meteohub,2013-04-23 12:59:00,
2013-04-23 06:04:00,38.3,23.5,30.06,South,180,2.0,3.0,55,0.00,,,0.00,meteohub,2013-04-23 13:04:00,
2013-04-23 06:09:00,38.7,23.4,30.07,East,90,2.0,4.0,54,0.00,,,0.00,meteohub,2013-04-23 13:09:00,
2013-04-23 06:14:00,38.3,22.6,30.07,SSE,158,4.0,4.0,53,0.00,,,0.00,meteohub,2013-04-23 13:14:00,
2013-04-23 06:19:00,38.3,23.2,30.07,East,90,3.0,4.0,54,0.00,,,0.00,meteohub,2013-04-23 13:19:00,
2013-04-23 06:25:00,39.2,24.4,30.07,East,90,4.0,4.0,55,0.00,,,0.00,meteohub,2013-04-23 13:25:00,
2013-04-23 06:30:00,39.6,24.8,30.07,East,90,4.0,4.0,55,0.00,,,0.00,meteohub,2013-04-23 13:30:00,
2013-04-23 06:35:00,41.2,25.9,30.08,East,90,4.0,8.0,54,0.00,,,0.00,meteohub,2013-04-23 13:35:00,
2013-04-23 06:40:00,42.6,26.2,30.08,SE,135,5.0,8.0,52,0.00,,,0.00,meteohub,2013-04-23 13:40:00,
2013-04-23 06:45:00,43.5,26.1,30.07,NE,45,5.0,8.0,50,0.00,,,0.00,meteohub,2013-04-23 13:45:00,
2013-04-23 06:50:00,45.0,26.4,30.08,East,90,4.0,8.0,48,0.00,,,0.00,meteohub,2013-04-23 13:50:00,
2013-04-23 06:56:00,45.9,26.2,30.08,East,90,6.0,8.0,46,0.00,,,0.00,meteohub,2013-04-23 13:56:00,
2013-04-23 07:01:00,46.6,25.9,30.08,South,180,5.0,8.0,44,0.00,,,0.00,meteohub,2013-04-23 14:01:00,
2013-04-23 07:07:00,47.3,24.8,30.08,SE,135,8.0,8.0,41,0.00,,,0.00,meteohub,2013-04-23 14:07:00,
2013-04-23 07:12:00,48.0,24.8,30.08,East,90,6.0,8.0,40,0.00,,,0.00,meteohub,2013-04-23 14:12:00,
2013-04-23 07:17:00,48.7,24.8,30.08,East,90,5.0,8.0,39,0.00,,,0.00,meteohub,2013-04-23 14:17:00,
2013-04-23 07:22:00,49.1,22.6,30.08,NE,45,11.0,11.0,35,0.00,,,0.00,meteohub,2013-04-23 14:22:00,
2013-04-23 07:27:00,49.5,23.0,30.08,North,0,11.0,11.0,35,0.00,,,0.00,meteohub,2013-04-23 14:27:00,
2013-04-23 07:32:00,49.6,22.5,30.08,East,90,7.0,13.0,34,0.00,,,0.00,meteohub,2013-04-23 14:32:00,
2013-04-23 07:37:00,50.0,21.4,30.09,SE,135,9.0,13.0,32,0.00,,,0.00,meteohub,2013-04-23 14:37:00,
2013-04-23 07:42:00,50.2,21.4,30.09,NE,45,11.0,12.0,32,0.00,,,0.00,meteohub,2013-04-23 14:42:00,
2013-04-23 07:47:00,50.4,19.2,30.09,East,90,12.0,12.0,29,0.00,,,0.00,meteohub,2013-04-23 14:47:00,
2013-04-23 07:52:00,50.4,20.1,30.08,NE,45,9.0,11.0,30,0.00,,,0.00,meteohub,2013-04-23 14:52:00,
2013-04-23 07:57:00,50.4,20.8,30.09,ENE,68,4.0,11.0,31,0.00,,,0.00,meteohub,2013-04-23 14:57:00,
2013-04-23 08:02:00,50.9,18.9,30.09,ESE,113,13.0,14.0,28,0.00,,,0.00,meteohub,2013-04-23 15:02:00,
2013-04-23 08:07:00,50.7,19.6,30.09,ENE,68,10.0,14.0,29,0.00,,,0.00,meteohub,2013-04-23 15:07:00,
2013-04-23 08:12:00,51.1,20.7,30.09,East,90,8.0,13.0,30,0.00,,,0.00,meteohub,2013-04-23 15:12:00,
2013-04-23 08:17:00,51.4,20.3,30.09,East,90,7.0,13.0,29,0.00,,,0.00,meteohub,2013-04-23 15:17:00,
2013-04-23 08:22:00,51.6,19.6,30.09,NE,45,8.0,13.0,28,0.00,,,0.00,meteohub,2013-04-23 15:22:00,
2013-04-23 08:27:00,51.8,18.9,30.09,NE,45,7.0,13.0,27,0.00,,,0.00,meteohub,2013-04-23 15:27:00,
2013-04-23 08:32:00,52.2,20.1,30.09,ENE,68,4.0,11.0,28,0.00,,,0.00,meteohub,2013-04-23 15:32:00,
2013-04-23 08:37:00,52.3,20.1,30.09,NE,45,9.0,11.0,28,0.00,,,0.00,meteohub,2013-04-23 15:37:00,
2013-04-23 08:42:00,52.3,20.1,30.09,East,90,6.0,11.0,28,0.00,,,0.00,meteohub,2013-04-23 15:42:00,
2013-04-23 08:47:00,52.3,18.5,30.09,East,90,7.0,11.0,26,0.00,,,0.00,meteohub,2013-04-23 15:47:00,
2013-04-23 08:52:00,52.2,17.4,30.09,North,0,11.0,14.0,25,0.00,,,0.00,meteohub,2013-04-23 15:52:00,
2013-04-23 08:57:00,51.4,17.6,30.09,North,0,7.0,14.0,26,0.00,,,0.00,meteohub,2013-04-23 15:57:00,
2013-04-23 09:02:00,51.4,16.7,30.10,North,0,10.0,12.0,25,0.00,,,0.00,meteohub,2013-04-23 16:02:00,
2013-04-23 09:09:00,51.3,16.7,30.09,North,0,8.0,12.0,25,0.00,,,0.00,meteohub,2013-04-23 16:09:00,
2013-04-23 09:14:00,51.6,16.9,30.10,NE,45,6.0,11.0,25,0.00,,,0.00,meteohub,2013-04-23 16:14:00,
2013-04-23 09:19:00,52.2,17.4,30.09,NE,45,7.0,11.0,25,0.00,,,0.00,meteohub,2013-04-23 16:19:00,
2013-04-23 09:24:00,52.3,16.5,30.10,North,0,8.0,11.0,24,0.00,,,0.00,meteohub,2013-04-23 16:24:00,
2013-04-23 09:29:00,52.5,17.8,30.10,ENE,68,11.0,11.0,25,0.00,,,0.00,meteohub,2013-04-23 16:29:00,
2013-04-23 09:34:00,52.7,16.9,30.10,East,90,11.0,11.0,24,0.00,,,0.00,meteohub,2013-04-23 16:34:00,
2013-04-23 09:39:00,52.9,17.1,30.10,North,0,5.0,11.0,24,0.00,,,0.00,meteohub,2013-04-23 16:39:00,
2013-04-23 09:44:00,53.4,18.5,30.10,NE,45,7.0,13.0,25,0.00,,,0.00,meteohub,2013-04-23 16:44:00,
2013-04-23 09:49:00,53.8,16.9,30.10,East,90,9.0,13.0,23,0.00,,,0.00,meteohub,2013-04-23 16:49:00,
2013-04-23 09:54:00,53.2,16.3,30.10,North,0,6.0,13.0,23,0.00,,,0.00,meteohub,2013-04-23 16:54:00,
2013-04-23 09:59:00,53.6,17.6,30.10,East,90,9.0,12.0,24,0.00,,,0.00,meteohub,2013-04-23 16:59:00,
2013-04-23 10:04:00,53.8,17.8,30.10,NE,45,4.0,12.0,24,0.00,,,0.00,meteohub,2013-04-23 17:04:00,
2013-04-23 10:09:00,54.1,17.1,30.10,NE,45,10.0,12.0,23,0.00,,,0.00,meteohub,2013-04-23 17:09:00,
2013-04-23 10:14:00,54.1,17.1,30.11,North,0,8.0,12.0,23,0.00,,,0.00,meteohub,2013-04-23 17:14:00,
2013-04-23 10:19:00,54.3,17.2,30.11,North,0,8.0,11.0,23,0.00,,,0.00,meteohub,2013-04-23 17:19:00,
2013-04-23 10:24:00,54.7,17.6,30.11,NE,45,11.0,11.0,23,0.00,,,0.00,meteohub,2013-04-23 17:24:00,
2013-04-23 10:29:00,54.7,17.6,30.11,NE,45,8.0,11.0,23,0.00,,,0.00,meteohub,2013-04-23 17:29:00,
2013-04-23 10:35:00,55.4,18.1,30.11,NE,45,6.0,14.0,23,0.00,,,0.00,meteohub,2013-04-23 17:35:00,
2013-04-23 10:40:00,56.7,18.3,30.11,ENE,68,8.0,11.0,22,0.00,,,0.00,meteohub,2013-04-23 17:40:00,
2013-04-23 10:45:00,56.3,18.0,30.11,North,0,4.0,12.0,22,0.00,,,0.00,meteohub,2013-04-23 17:45:00,
2013-04-23 10:50:00,56.3,18.0,30.11,East,90,7.0,12.0,22,0.00,,,0.00,meteohub,2013-04-23 17:50:00,
2013-04-23 10:55:00,56.7,17.2,30.10,North,0,6.0,12.0,21,0.00,,,0.00,meteohub,2013-04-23 17:55:00,
2013-04-23 11:00:00,56.5,18.1,30.11,SE,135,10.0,11.0,22,0.00,,,0.00,meteohub,2013-04-23 18:00:00,
2013-04-23 11:05:00,57.2,18.7,30.11,East,90,11.0,11.0,22,0.00,,,0.00,meteohub,2013-04-23 18:05:00,
2013-04-23 11:10:00,56.8,17.2,30.11,NE,45,11.0,11.0,21,0.00,,,0.00,meteohub,2013-04-23 18:10:00,
2013-04-23 11:15:00,56.7,18.3,30.11,NW,315,5.0,14.0,22,0.00,,,0.00,meteohub,2013-04-23 18:15:00,
2013-04-23 11:20:00,56.8,17.2,30.11,NE,45,8.0,14.0,21,0.00,,,0.00,meteohub,2013-04-23 18:20:00,
2013-04-23 11:25:00,56.8,16.2,30.10,NE,45,6.0,14.0,20,0.00,,,0.00,meteohub,2013-04-23 18:25:00,
2013-04-23 11:30:00,56.3,18.0,30.10,East,90,8.0,14.0,22,0.00,,,0.00,meteohub,2013-04-23 18:30:00,
2013-04-23 11:35:00,56.3,16.9,30.10,North,0,5.0,11.0,21,0.00,,,0.00,meteohub,2013-04-23 18:35:00,
2013-04-23 11:40:00,56.3,15.8,30.11,North,0,5.0,14.0,20,0.00,,,0.00,meteohub,2013-04-23 18:40:00,
2013-04-23 11:45:00,56.3,16.9,30.11,North,0,4.0,17.0,21,0.00,,,0.00,meteohub,2013-04-23 18:45:00,
2013-04-23 11:50:00,56.5,17.1,30.10,East,90,6.0,17.0,21,0.00,,,0.00,meteohub,2013-04-23 18:50:00,
2013-04-23 11:55:00,56.7,16.0,30.11,NE,45,9.0,17.0,20,0.00,,,0.00,meteohub,2013-04-23 18:55:00,
2013-04-23 12:00:00,56.7,14.9,30.11,ENE,68,10.0,17.0,19,0.00,,,0.00,meteohub,2013-04-23 19:00:00,
2013-04-23 12:05:00,57.0,16.3,30.10,East,90,8.0,10.0,20,0.00,,,0.00,meteohub,2013-04-23 19:05:00,
2013-04-23 12:10:00,57.4,16.7,30.11,NE,45,5.0,10.0,20,0.00,,,0.00,meteohub,2013-04-23 19:10:00,
2013-04-23 12:15:00,57.6,15.6,30.10,SE,135,8.0,10.0,19,0.00,,,0.00,meteohub,2013-04-23 19:15:00,
2013-04-23 12:20:00,57.4,16.7,30.10,North,0,4.0,12.0,20,0.00,,,0.00,meteohub,2013-04-23 19:20:00,
2013-04-23 12:25:00,58.1,17.2,30.10,NE,45,7.0,12.0,20,0.00,,,0.00,meteohub,2013-04-23 19:25:00,
2013-04-23 12:30:00,57.9,15.8,30.10,SE,135,8.0,12.0,19,0.00,,,0.00,meteohub,2013-04-23 19:30:00,
2013-04-23 12:35:00,58.1,16.0,30.10,East,90,8.0,12.0,19,0.00,,,0.00,meteohub,2013-04-23 19:35:00,
2013-04-23 12:40:00,57.9,15.8,30.10,North,0,8.0,13.0,19,0.00,,,0.00,meteohub,2013-04-23 19:40:00,
2013-04-23 12:46:00,58.1,16.0,30.10,West,270,6.0,13.0,19,0.00,,,0.00,meteohub,2013-04-23 19:46:00,
2013-04-23 12:51:00,58.8,15.4,30.10,SE,135,7.0,13.0,18,0.00,,,0.00,meteohub,2013-04-23 19:51:00,
2013-04-23 12:56:00,58.6,15.3,30.10,East,90,9.0,13.0,18,0.00,,,0.00,meteohub,2013-04-23 19:56:00,
2013-04-23 13:01:00,59.0,15.6,30.10,NNE,23,8.0,13.0,18,0.00,,,0.00,meteohub,2013-04-23 20:01:00,
2013-04-23 13:06:00,59.4,15.8,30.10,SE,135,8.0,13.0,18,0.00,,,0.00,meteohub,2013-04-23 20:06:00,
2013-04-23 13:11:00,60.1,16.3,30.10,ENE,68,7.0,12.0,18,0.00,,,0.00,meteohub,2013-04-23 20:11:00,
2013-04-23 13:16:00,60.4,15.4,30.10,East,90,11.0,11.0,17,0.00,,,0.00,meteohub,2013-04-23 20:16:00,
2013-04-23 13:21:00,60.4,15.4,30.09,NE,45,5.0,11.0,17,0.00,,,0.00,meteohub,2013-04-23 20:21:00,
2013-04-23 13:26:00,59.9,14.9,30.10,East,90,8.0,11.0,17,0.00,,,0.00,meteohub,2013-04-23 20:26:00,
2013-04-23 13:31:00,59.9,16.3,30.09,SE,135,7.0,11.0,18,0.00,,,0.00,meteohub,2013-04-23 20:31:00,
2013-04-23 13:36:00,60.6,16.9,30.09,SE,135,6.0,11.0,18,0.00,,,0.00,meteohub,2013-04-23 20:36:00,
2013-04-23 13:41:00,60.8,17.1,30.09,East,90,5.0,10.0,18,0.00,,,0.00,meteohub,2013-04-23 20:41:00,
2013-04-23 13:46:00,60.6,15.6,30.09,East,90,7.0,11.0,17,0.00,,,0.00,meteohub,2013-04-23 20:46:00,
2013-04-23 13:51:00,61.0,17.2,30.09,East,90,6.0,11.0,18,0.00,,,0.00,meteohub,2013-04-23 20:51:00,
2013-04-23 13:56:00,62.1,16.7,30.09,NE,45,5.0,11.0,17,0.00,,,0.00,meteohub,2013-04-23 20:56:00,
2013-04-23 14:01:00,62.2,16.9,30.09,NE,45,4.0,10.0,17,0.00,,,0.00,meteohub,2013-04-23 21:01:00,
2013-04-23 14:06:00,62.2,16.9,30.09,NE,45,6.0,9.0,17,0.00,,,0.00,meteohub,2013-04-23 21:06:00,
2013-04-23 14:11:00,61.9,16.5,30.09,East,90,8.0,9.0,17,0.00,,,0.00,meteohub,2013-04-23 21:11:00,